Time;durP1;ratioP1;P1;durP2;ratioP2;P2;SDS_P1;SDS_P2;PMS_P1;PMS_P2;Temp;Humidity;BMP_temperature;BMP_pressure;BME280_temperature;BME280_humidity;BME280_pressure;Samples;Min_cycle;Max_cycle;Signal;HPM_P1;HPM_P2
2022/04/12 00:01:42;;;;;;;;;;;;;;;16.75;31.52;101908.03;143737;985;45933;-82
2022/04/12 00:04:09;;;;;;;;;;;;;;;16.72;31.62;101906.56;143736;984;47000;-82
2022/04/12 00:06:42;;;;;;;;;;;;;;;16.75;32.03;101914.31;143716;984;57010;-81
2022/04/12 00:09:11;;;;;;;;;;;;;;;16.74;31.75;101911.78;143741;979;45014;-82
2022/04/12 00:11:37;;;;;;;;;;;;;;;16.71;32.27;101909.47;143733;986;48008;-82
2022/04/12 00:14:03;;;;;;;;;;;;;;;16.67;32.14;101909.09;143741;984;45012;-82
2022/04/12 00:16:30;;;;;;;;;;;;;;;16.57;32.05;101898.66;143739;984;45935;-84
2022/04/12 00:19:02;;;;;;;;;;;;;;;16.60;32.64;101902.81;143738;980;47004;-82
2022/04/12 00:21:29;;;;;;;;;;;;;;;16.61;33.05;101905.34;143736;985;47011;-81
2022/04/12 00:23:55;;;;;;;;;;;;;;;16.56;32.94;101915.16;143740;976;47002;-82
2022/04/12 00:26:21;;;;;;;;;;;;;;;16.55;32.53;101913.47;143735;984;47012;-83
2022/04/12 00:28:48;;;;;;;;;;;;;;;16.56;32.58;101907.84;143737;980;47004;-82
2022/04/12 00:31:14;;;;;;;;;;;;;;;16.51;33.03;101900.34;143739;984;45935;-82
2022/04/12 00:33:40;;;;;;;;;;;;;;;16.44;32.63;101904.91;143737;976;47013;-82
2022/04/12 00:36:08;;;;;;;;;;;;;;;16.40;32.84;101906.41;143739;972;46030;-83
2022/04/12 00:38:35;;;;;;;;;;;;;;;16.39;33.33;101904.72;143736;979;48004;-83
2022/04/12 00:41:02;;;;;;;;;;;;;;;16.30;33.24;101906.81;143738;982;46002;-82
2022/04/12 00:43:29;;;;;;;;;;;;;;;16.32;33.14;101902.00;143743;984;45012;-83
2022/04/12 00:46:00;;;;;;;;;;;;;;;16.24;33.54;101910.34;143733;983;47934;-83
2022/04/12 00:48:34;;;;;;;;;;;;;;;16.23;33.66;101910.56;143734;980;47004;-83
2022/04/12 00:51:00;;;;;;;;;;;;;;;16.18;33.25;101911.16;143734;985;47011;-83
2022/04/12 00:53:27;;;;;;;;;;;;;;;16.16;32.45;101907.81;143735;984;48002;-83
2022/04/12 00:55:53;;;;;;;;;;;;;;;16.22;32.46;101917.84;143738;984;47012;-82
2022/04/12 00:58:19;;;;;;;;;;;;;;;16.21;32.36;101906.19;143737;980;47004;-82
2022/04/12 01:00:49;;;;;;;;;;;;;;;16.20;32.56;101907.22;143739;985;45935;-82
2022/04/12 01:03:15;;;;;;;;;;;;;;;16.14;32.41;101908.03;143735;984;47002;-84
2022/04/12 01:05:42;;;;;;;;;;;;;;;16.14;32.47;101904.50;143742;984;45934;-83
2022/04/12 01:08:08;;;;;;;;;;;;;;;16.17;32.44;101904.06;143740;979;45014;-82
2022/04/12 01:10:35;;;;;;;;;;;;;;;16.17;32.32;101899.50;143739;985;45935;-82
2022/04/12 01:13:02;;;;;;;;;;;;;;;16.18;32.30;101903.03;143742;984;45013;-82
2022/04/12 01:15:28;;;;;;;;;;;;;;;16.14;32.90;101893.66;143738;969;46031;-81
2022/04/12 01:17:54;;;;;;;;;;;;;;;16.14;32.87;101893.66;143740;980;45014;-83
2022/04/12 01:20:25;;;;;;;;;;;;;;;16.11;33.12;101886.75;143739;986;45936;-83
2022/04/12 01:23:26;;;;;;;;;;;;;;;16.14;33.22;101894.47;143741;983;46010;-83
2022/04/12 01:25:52;;;;;;;;;;;;;;;16.09;33.20;101899.66;143737;984;47012;-84
2022/04/12 01:28:19;;;;;;;;;;;;;;;16.01;32.71;101899.88;143736;980;47004;-84
2022/04/12 01:30:45;;;;;;;;;;;;;;;15.99;32.43;101891.94;143736;983;47010;-83
2022/04/12 01:33:11;;;;;;;;;;;;;;;15.96;32.56;101891.53;143742;984;46002;-82
2022/04/12 01:35:38;;;;;;;;;;;;;;;15.97;32.33;101893.19;143732;984;49007;-82
2022/04/12 01:38:13;;;;;;;;;;;;;;;15.98;32.04;101903.00;143737;970;47013;-83
2022/04/12 01:40:39;;;;;;;;;;;;;;;15.98;31.92;101903.00;143740;984;45935;-81
2022/04/12 01:43:19;;;;;;;;;;;;;;;16.00;31.79;101914.47;143733;984;48002;-81
2022/04/12 01:48:20;;;;;;;;;;;;;;;16.01;32.54;101911.53;143727;880;48012;-76
2022/04/12 01:50:46;;;;;;;;;;;;;;;16.01;31.77;101916.16;143738;986;46936;-78
2022/04/12 01:53:12;;;;;;;;;;;;;;;16.08;31.60;101916.97;143739;979;46012;-76
2022/04/12 01:55:38;;;;;;;;;;;;;;;16.10;32.86;101930.34;143735;984;46933;-76
2022/04/12 01:58:04;;;;;;;;;;;;;;;16.09;33.04;101929.47;143739;980;46012;-77
2022/04/12 02:00:30;;;;;;;;;;;;;;;16.10;32.48;101928.44;143734;972;47004;-76
2022/04/12 02:02:56;;;;;;;;;;;;;;;16.11;32.70;101929.31;143740;962;46010;-76
2022/04/12 02:05:22;;;;;;;;;;;;;;;16.11;32.72;101929.31;143732;984;46008;-76
2022/04/12 02:07:47;;;;;;;;;;;;;;;16.16;32.75;101924.94;143734;979;47004;-75
2022/04/12 02:10:13;;;;;;;;;;;;;;;16.16;31.84;101918.66;143734;985;46012;-76
2022/04/12 02:12:39;;;;;;;;;;;;;;;16.16;32.60;101921.37;143732;984;47002;-75
2022/04/12 02:15:06;;;;;;;;;;;;;;;16.14;32.29;101921.59;143733;983;47013;-76
2022/04/12 02:17:32;;;;;;;;;;;;;;;16.12;32.29;101917.41;143729;980;47004;-77
2022/04/12 02:19:57;;;;;;;;;;;;;;;16.14;32.62;101918.88;143734;985;47004;-78
2022/04/12 02:22:23;;;;;;;;;;;;;;;16.19;32.78;101924.50;143730;978;50022;-77
2022/04/12 02:24:49;;;;;;;;;;;;;;;16.21;32.76;101921.59;143736;984;46012;-76
2022/04/12 02:27:15;;;;;;;;;;;;;;;16.19;32.10;101920.97;143734;980;46017;-76
2022/04/12 02:29:41;;;;;;;;;;;;;;;16.19;32.21;101916.38;143724;985;46012;-75
2022/04/12 02:32:07;;;;;;;;;;;;;;;16.16;30.91;101914.09;143737;984;46010;-77
2022/04/12 02:34:34;;;;;;;;;;;;;;;16.21;30.72;101922.44;143735;984;47012;-76
2022/04/12 02:37:00;;;;;;;;;;;;;;;16.23;31.16;101919.50;143737;979;46004;-72
2022/04/12 02:39:29;;;;;;;;;;;;;;;16.25;30.82;101932.84;143739;986;45936;-72
2022/04/12 02:42:00;;;;;;;;;;;;;;;16.28;31.29;101930.56;143742;982;45011;-71
2022/04/12 02:44:27;;;;;;;;;;;;;;;16.32;30.84;101923.69;143736;983;46008;-76
2022/04/12 02:46:52;;;;;;;;;;;;;;;16.32;30.25;101926.41;143732;980;46010;-76
2022/04/12 02:49:18;;;;;;;;;;;;;;;16.32;30.83;101930.97;143738;986;46008;-75
2022/04/12 02:51:45;;;;;;;;;;;;;;;16.27;31.28;101934.31;143738;983;46023;-75
2022/04/12 02:54:12;;;;;;;;;;;;;;;16.19;31.79;101943.50;143735;984;47008;-76
2022/04/12 02:56:38;;;;;;;;;;;;;;;16.16;32.01;101940.34;143734;980;47010;-76
2022/04/12 02:59:04;;;;;;;;;;;;;;;16.14;31.45;101940.56;143739;985;46004;-76
2022/04/12 03:01:30;;;;;;;;;;;;;;;16.18;31.50;101949.94;143734;973;47000;-78
2022/04/12 03:03:56;;;;;;;;;;;;;;;16.20;32.14;101944.31;143734;984;46011;-75
2022/04/12 03:06:23;;;;;;;;;;;;;;;16.16;32.22;101941.19;143733;975;47002;-75
2022/04/12 03:08:49;;;;;;;;;;;;;;;16.12;31.33;101944.53;143730;986;46008;-76
2022/04/12 03:11:15;;;;;;;;;;;;;;;16.15;30.97;101954.97;143737;977;47023;-75
2022/04/12 03:13:41;;;;;;;;;;;;;;;16.13;32.30;101965.16;143732;983;47002;-75
2022/04/12 03:16:07;;;;;;;;;;;;;;;16.04;32.92;101961.81;143725;980;46010;-75
2022/04/12 03:18:33;;;;;;;;;;;;;;;16.04;32.90;101968.06;143734;986;47000;-76
2022/04/12 03:20:59;;;;;;;;;;;;;;;16.01;33.05;101962.22;143738;983;47004;-76
2022/04/12 03:23:25;;;;;;;;;;;;;;;15.99;32.93;101967.81;143735;972;47010;-77
2022/04/12 03:25:51;;;;;;;;;;;;;;;16.01;33.19;101975.75;143736;980;46010;-75
2022/04/12 03:28:17;;;;;;;;;;;;;;;15.97;33.78;101971.78;143729;985;46009;-76
2022/04/12 03:30:43;;;;;;;;;;;;;;;15.94;33.84;101972.19;143735;984;47012;-76
2022/04/12 03:33:09;;;;;;;;;;;;;;;15.88;34.25;101973.84;143737;974;46002;-75
2022/04/12 03:35:37;;;;;;;;;;;;;;;15.81;33.76;101981.06;143732;980;47002;-75
2022/04/12 03:38:03;;;;;;;;;;;;;;;15.82;33.87;101977.31;143728;985;48008;-75
2022/04/12 03:40:31;;;;;;;;;;;;;;;15.84;34.42;101986.09;143738;984;46012;-75
2022/04/12 03:43:01;;;;;;;;;;;;;;;15.83;33.65;101990.69;143737;975;46011;-77
2022/04/12 03:45:27;;;;;;;;;;;;;;;15.80;33.45;101987.50;143740;980;46002;-76
2022/04/12 03:47:53;;;;;;;;;;;;;;;15.83;33.54;101981.69;143738;981;46008;-76
2022/04/12 03:50:19;;;;;;;;;;;;;;;15.81;33.57;101992.75;143737;984;47000;-76
2022/04/12 03:52:45;;;;;;;;;;;;;;;15.74;33.78;101984.59;143734;984;46010;-76
2022/04/12 03:55:11;;;;;;;;;;;;;;;15.76;33.64;101993.38;143734;980;46002;-77
2022/04/12 03:57:37;;;;;;;;;;;;;;;15.76;33.92;102000.63;143733;984;46009;-75
2022/04/12 04:00:07;;;;;;;;;;;;;;;15.73;34.12;101998.31;143739;984;46012;-76
2022/04/12 04:02:33;;;;;;;;;;;;;;;15.71;33.60;102000.41;143730;984;47002;-77
2022/04/12 04:04:59;;;;;;;;;;;;;;;15.68;33.62;102003.53;143732;980;46011;-76
2022/04/12 04:07:25;;;;;;;;;;;;;;;15.69;33.69;102006.03;143733;982;47000;-75
2022/04/12 04:09:51;;;;;;;;;;;;;;;15.64;34.31;102010.38;143738;984;46000;-76
2022/04/12 04:12:17;;;;;;;;;;;;;;;15.63;34.07;102022.25;143735;984;46011;-76
2022/04/12 04:14:44;;;;;;;;;;;;;;;15.60;33.85;102015.38;143737;979;46010;-76
2022/04/12 04:17:10;;;;;;;;;;;;;;;15.58;33.92;102020.97;143733;986;46008;-75
2022/04/12 04:19:36;;;;;;;;;;;;;;;15.59;33.83;102014.53;143739;984;46000;-75
2022/04/12 04:22:02;;;;;;;;;;;;;;;15.61;33.82;102020.56;143725;984;47008;-76
2022/04/12 04:24:28;;;;;;;;;;;;;;;15.63;33.40;102019.53;143732;980;47002;-75
2022/04/12 04:26:55;;;;;;;;;;;;;;;15.63;33.87;102030.37;143736;985;46013;-76
2022/04/12 04:29:23;;;;;;;;;;;;;;;15.65;33.54;102026.41;143736;978;46008;-75
2022/04/12 04:31:49;;;;;;;;;;;;;;;15.65;32.44;102029.13;143738;984;46010;-76
2022/04/12 04:34:16;;;;;;;;;;;;;;;15.68;32.32;102033.31;143737;980;47002;-76
2022/04/12 04:36:42;;;;;;;;;;;;;;;15.71;32.38;102036.47;143731;984;47008;-75
2022/04/12 04:39:08;;;;;;;;;;;;;;;15.73;32.79;102031.69;143739;984;46012;-75
2022/04/12 04:41:34;;;;;;;;;;;;;;;15.70;33.05;102042.09;143734;984;47008;-78
2022/04/12 04:44:00;;;;;;;;;;;;;;;15.72;33.09;102040.84;143737;979;46002;-78
2022/04/12 04:46:26;;;;;;;;;;;;;;;15.74;32.87;102040.63;143727;983;46017;-75
2022/04/12 04:48:52;;;;;;;;;;;;;;;15.78;33.48;102041.91;143737;984;46000;-74
2022/04/12 04:51:18;;;;;;;;;;;;;;;15.79;34.02;102043.59;143736;984;46010;-77
2022/04/12 04:53:49;;;;;;;;;;;;;;;15.82;33.46;102045.91;143735;980;47002;-77
2022/04/12 04:56:15;;;;;;;;;;;;;;;15.87;33.60;102048.03;143733;973;48002;-75
2022/04/12 04:58:41;;;;;;;;;;;;;;;15.84;34.21;102046.53;143736;983;46012;-79
2022/04/12 05:01:07;;;;;;;;;;;;;;;15.93;34.04;102051.78;143731;984;47010;-70
2022/04/12 05:03:33;;;;;;;;;;;;;;;15.99;33.73;102049.12;143729;974;47002;-74
2022/04/12 05:05:59;;;;;;;;;;;;;;;16.03;34.37;102053.09;143737;983;46008;-73
2022/04/12 05:08:25;;;;;;;;;;;;;;;16.10;34.73;102060.44;143738;979;46000;-73
2022/04/12 05:10:51;;;;;;;;;;;;;;;16.16;34.06;102067.72;143736;984;46014;-73
2022/04/12 05:13:17;;;;;;;;;;;;;;;16.19;34.04;102062.75;143734;979;47002;-73
2022/04/12 05:15:42;;;;;;;;;;;;;;;16.21;33.39;102066.09;143737;985;46008;-73
2022/04/12 05:18:09;;;;;;;;;;;;;;;16.20;32.30;102061.72;143737;984;46000;-74
2022/04/12 05:20:35;;;;;;;;;;;;;;;16.25;30.52;102077.37;143736;983;46010;-72
2022/04/12 05:23:01;;;;;;;;;;;;;;;16.31;30.02;102071.16;143733;980;46002;-73
2022/04/12 05:25:27;;;;;;;;;;;;;;;16.41;31.82;102075.31;143736;983;46009;-73
2022/04/12 05:27:53;;;;;;;;;;;;;;;16.43;31.81;102074.06;143737;983;46008;-73
2022/04/12 05:30:19;;;;;;;;;;;;;;;16.50;31.53;102076.84;143737;984;46010;-74
2022/04/12 05:32:45;;;;;;;;;;;;;;;16.54;30.56;102079.97;143734;980;46003;-73
2022/04/12 05:35:11;;;;;;;;;;;;;;;16.56;30.30;102075.16;143736;985;46008;-71
2022/04/12 05:37:48;;;;;;;;;;;;;;;16.57;29.73;102079.56;143736;978;47000;-72
2022/04/12 05:40:15;;;;;;;;;;;;;;;16.63;29.55;102082.28;143736;984;46010;-71
2022/04/12 05:42:41;;;;;;;;;;;;;;;16.71;29.19;102086.66;143735;979;46011;-73
2022/04/12 05:45:08;;;;;;;;;;;;;;;16.80;28.54;102098.16;143737;985;46008;-72
2022/04/12 05:47:40;;;;;;;;;;;;;;;16.88;29.32;102094.41;143735;984;47000;-72
2022/04/12 05:50:07;;;;;;;;;;;;;;;16.92;29.03;102099.22;143736;974;46010;-72
2022/04/12 05:52:32;;;;;;;;;;;;;;;16.99;29.17;102101.97;143731;971;47002;-72
2022/04/12 05:54:58;;;;;;;;;;;;;;;17.08;29.00;102099.88;143736;986;46008;-72
2022/04/12 05:57:24;;;;;;;;;;;;;;;17.15;30.34;102100.72;143735;983;47000;-72
2022/04/12 05:59:50;;;;;;;;;;;;;;;17.19;30.72;102103.84;143729;984;46014;-73
2022/04/12 06:02:16;;;;;;;;;;;;;;;17.23;31.00;102100.50;143728;980;47002;-72
2022/04/12 06:04:42;;;;;;;;;;;;;;;17.25;31.01;102097.59;143735;985;46008;-72
2022/04/12 06:07:08;;;;;;;;;;;;;;;17.30;32.00;102103.22;143735;984;47000;-72
2022/04/12 06:09:34;;;;;;;;;;;;;;;17.36;32.01;102112.44;143735;974;46010;-73
2022/04/12 06:12:00;;;;;;;;;;;;;;;17.30;32.74;102108.66;143735;979;46002;-72
2022/04/12 06:14:26;;;;;;;;;;;;;;;17.34;33.79;102112.63;143736;986;46008;-74
2022/04/12 06:16:52;;;;;;;;;;;;;;;17.39;33.03;102111.97;143738;984;46000;-74
2022/04/12 06:19:18;;;;;;;;;;;;;;;17.48;33.59;102109.88;143729;984;47011;-75
2022/04/12 06:21:44;;;;;;;;;;;;;;;17.51;33.34;102110.31;143734;980;47002;-76
2022/04/12 06:24:10;;;;;;;;;;;;;;;17.56;33.06;102112.41;143736;986;46008;-75
2022/04/12 06:26:36;;;;;;;;;;;;;;;17.61;33.55;102109.03;143738;971;46000;-73
2022/04/12 06:29:02;;;;;;;;;;;;;;;17.63;32.95;102104.22;143736;984;46010;-73
2022/04/12 06:31:28;;;;;;;;;;;;;;;17.65;33.08;102102.97;143737;980;46010;-74
2022/04/12 06:33:53;;;;;;;;;;;;;;;17.67;33.56;102108.19;143735;985;46009;-73
2022/04/12 06:36:19;;;;;;;;;;;;;;;17.75;34.17;102107.13;143731;984;47000;-72
2022/04/12 06:38:45;;;;;;;;;;;;;;;17.85;33.60;102099.38;143733;984;47002;-73
2022/04/12 06:41:11;;;;;;;;;;;;;;;17.91;32.87;102098.53;143732;974;47003;-73
2022/04/12 06:43:37;;;;;;;;;;;;;;;17.98;32.82;102096.66;143738;981;46008;-74
2022/04/12 06:46:03;;;;;;;;;;;;;;;18.02;32.90;102100.59;143737;984;46008;-74
2022/04/12 06:48:30;;;;;;;;;;;;;;;18.10;32.53;102101.41;143737;984;46011;-74
2022/04/12 06:50:56;;;;;;;;;;;;;;;18.14;31.76;102097.22;143733;979;47002;-74
2022/04/12 06:53:23;;;;;;;;;;;;;;;18.12;32.71;102097.41;143736;978;46000;-75
2022/04/12 06:55:49;;;;;;;;;;;;;;;18.15;32.90;102097.00;143732;984;48000;-75
2022/04/12 06:58:15;;;;;;;;;;;;;;;18.21;32.38;102098.00;143736;984;46010;-72
2022/04/12 07:00:41;;;;;;;;;;;;;;;18.24;33.40;102100.31;143736;980;46002;-73
2022/04/12 07:03:07;;;;;;;;;;;;;;;18.25;32.35;102101.16;143736;985;46008;-72
2022/04/12 07:05:33;;;;;;;;;;;;;;;18.30;31.99;102096.72;143732;984;47000;-74
2022/04/12 07:07:59;;;;;;;;;;;;;;;18.31;32.59;102098.41;143735;974;46026;-73
2022/04/12 07:10:25;;;;;;;;;;;;;;;18.40;31.65;102103.56;143733;980;46002;-73
2022/04/12 07:12:53;;;;;;;;;;;;;;;18.42;32.48;102104.19;143736;985;46008;-74
2022/04/12 07:15:20;;;;;;;;;;;;;;;18.48;31.29;102098.72;143738;974;46000;-75
2022/04/12 07:17:46;;;;;;;;;;;;;;;18.49;31.16;102094.94;143737;984;46010;-75
2022/04/12 07:20:12;;;;;;;;;;;;;;;18.59;29.93;102097.19;143733;979;47010;-76
2022/04/12 07:22:39;;;;;;;;;;;;;;;18.58;28.60;102090.06;143735;986;46933;-76
2022/04/12 07:25:05;;;;;;;;;;;;;;;18.57;27.88;102098.47;143737;984;46000;-76
2022/04/12 07:27:37;;;;;;;;;;;;;;;18.61;28.60;102088.81;143735;983;46010;-77
2022/04/12 07:30:08;;;;;;;;;;;;;;;18.71;28.76;102096.50;143736;980;46002;-75
2022/04/12 07:32:34;;;;;;;;;;;;;;;18.63;26.84;102086.69;143736;985;46008;-78
2022/04/12 07:35:00;;;;;;;;;;;;;;;18.66;26.56;102091.69;143735;977;46009;-76
2022/04/12 07:37:35;;;;;;;;;;;;;;;18.55;27.02;102085.06;143737;984;46010;-72
2022/04/12 07:40:05;;;;;;;;;;;;;;;18.65;26.14;102090.03;143739;980;45939;-74
2022/04/12 07:42:32;;;;;;;;;;;;;;;18.74;27.08;102090.59;143739;986;45932;-74
2022/04/12 07:44:58;;;;;;;;;;;;;;;18.73;27.12;102095.22;143740;984;46000;-77
2022/04/12 07:47:24;;;;;;;;;;;;;;;18.80;24.65;102097.91;143736;984;46011;-77
2022/04/12 07:49:50;;;;;;;;;;;;;;;18.74;24.23;102096.03;143735;979;46010;-77
2022/04/12 07:52:16;;;;;;;;;;;;;;;18.74;25.06;102096.03;143738;986;46008;-78
2022/04/12 07:54:42;;;;;;;;;;;;;;;18.75;25.68;102095.00;143732;984;47009;-78
2022/04/12 07:57:08;;;;;;;;;;;;;;;18.76;25.08;102105.69;143737;983;46011;-78
2022/04/12 07:59:34;;;;;;;;;;;;;;;18.74;24.53;102099.62;143730;972;46028;-76
2022/04/12 08:02:00;;;;;;;;;;;;;;;18.68;26.58;102099.66;143737;985;46009;-78
2022/04/12 08:04:26;;;;;;;;;;;;;;;18.77;25.77;102093.75;143736;983;47000;-76
2022/04/12 08:06:52;;;;;;;;;;;;;;;18.90;25.15;102097.41;143737;975;46010;-75
2022/04/12 08:09:18;;;;;;;;;;;;;;;19.02;25.11;102092.94;143734;980;47002;-77
2022/04/12 08:11:44;;;;;;;;;;;;;;;19.04;26.29;102098.19;143736;985;47000;-76
2022/04/12 08:14:10;;;;;;;;;;;;;;;19.03;25.98;102101.97;143736;984;47000;-76
2022/04/12 08:16:36;;;;;;;;;;;;;;;19.14;27.09;102093.06;143736;984;46010;-78
2022/04/12 08:19:02;;;;;;;;;;;;;;;19.19;25.35;102092.38;143734;979;46002;-78
2022/04/12 08:21:38;;;;;;;;;;;;;;;19.21;25.76;102093.84;143734;986;46012;-77
2022/04/12 08:24:04;;;;;;;;;;;;;;;19.09;25.10;102099.19;143734;984;46013;-78
2022/04/12 08:26:30;;;;;;;;;;;;;;;19.13;25.64;102096.84;143735;983;46935;-79
2022/04/12 08:28:55;;;;;;;;;;;;;;;19.19;25.98;102093.25;143731;980;47002;-78
2022/04/12 08:31:21;;;;;;;;;;;;;;;19.05;26.11;102095.22;143728;985;47933;-77
2022/04/12 08:33:47;;;;;;;;;;;;;;;19.10;26.44;102091.84;143733;983;47000;-78
2022/04/12 08:36:16;;;;;;;;;;;;;;;19.06;25.03;102090.63;143733;983;47012;-77
2022/04/12 08:38:45;;;;;;;;;;;;;;;19.11;25.90;102092.69;143730;980;47005;-77
2022/04/12 08:41:12;;;;;;;;;;;;;;;19.11;25.14;102098.13;143735;985;46010;-78
2022/04/12 08:43:39;;;;;;;;;;;;;;;18.96;25.03;102093.84;143734;984;47002;-78
2022/04/12 08:46:05;;;;;;;;;;;;;;;19.01;24.78;102095.91;143733;984;47004;-78
2022/04/12 08:48:32;;;;;;;;;;;;;;;19.08;24.94;102083.03;143732;979;47004;-77
2022/04/12 08:50:58;;;;;;;;;;;;;;;19.11;25.21;102077.16;143734;985;47010;-78
2022/04/12 08:53:24;;;;;;;;;;;;;;;19.17;24.50;102084.44;143734;984;47002;-78
2022/04/12 08:55:50;;;;;;;;;;;;;;;19.03;24.81;102066.56;143734;982;47013;-78
2022/04/12 08:58:16;;;;;;;;;;;;;;;19.09;25.55;102073.81;143732;980;47004;-77
2022/04/12 09:00:42;;;;;;;;;;;;;;;19.00;24.52;102073.28;143735;986;46010;-78
2022/04/12 09:03:08;;;;;;;;;;;;;;;19.06;23.87;102066.12;143733;983;47002;-76
2022/04/12 09:05:34;;;;;;;;;;;;;;;19.16;24.30;102071.88;143732;969;47933;-77
2022/04/12 09:07:59;;;;;;;;;;;;;;;19.10;24.76;102059.16;143731;980;47004;-77
2022/04/12 09:10:32;;;;;;;;;;;;;;;19.02;24.20;102057.53;143733;985;46935;-77
2022/04/12 09:13:11;;;;;;;;;;;;;;;19.00;24.72;102056.94;143735;984;47002;-75
2022/04/12 09:15:44;;;;;;;;;;;;;;;19.11;24.04;102055.38;143735;984;46012;-75
2022/04/12 09:18:11;;;;;;;;;;;;;;;19.23;24.23;102047.31;143733;979;47004;-74
2022/04/12 09:20:37;;;;;;;;;;;;;;;19.49;24.43;102042.66;143735;979;47010;-73
2022/04/12 09:23:03;;;;;;;;;;;;;;;19.46;23.38;102040.37;143734;984;47002;-74
2022/04/12 09:25:29;;;;;;;;;;;;;;;19.51;23.48;102033.19;143735;980;46030;-73
2022/04/12 09:27:55;;;;;;;;;;;;;;;19.54;23.61;102026.44;143731;980;47004;-75
2022/04/12 09:30:21;;;;;;;;;;;;;;;19.62;22.95;102033.50;143734;980;47010;-76
2022/04/12 09:32:49;;;;;;;;;;;;;;;19.74;23.35;102030.84;143735;984;47002;-77
2022/04/12 09:35:15;;;;;;;;;;;;;;;19.77;22.79;102033.13;143733;984;47012;-75
2022/04/12 09:37:45;;;;;;;;;;;;;;;19.77;22.54;102023.03;143731;980;47004;-77
2022/04/12 09:40:16;;;;;;;;;;;;;;;19.76;22.35;102015.09;143734;985;47010;-75
2022/04/12 09:42:44;;;;;;;;;;;;;;;19.74;21.84;102022.66;143733;984;47002;-78
2022/04/12 09:45:27;;;;;;;;;;;;;;;19.82;22.88;102019.63;143733;984;47004;-75
2022/04/12 09:47:53;;;;;;;;;;;;;;;19.92;22.47;102014.50;143732;979;47005;-75
2022/04/12 09:50:20;;;;;;;;;;;;;;;19.92;22.36;102021.84;143734;983;46010;-76
2022/04/12 09:53:02;;;;;;;;;;;;;;;19.93;22.76;102016.16;143733;984;47002;-75
2022/04/12 09:55:45;;;;;;;;;;;;;;;19.89;22.76;102008.69;143731;983;47013;-75
2022/04/12 09:58:12;;;;;;;;;;;;;;;19.82;22.43;102011.47;143732;980;47004;-78
2022/04/12 10:00:39;;;;;;;;;;;;;;;19.84;22.90;102012.87;143734;981;47010;-75
2022/04/12 10:03:06;;;;;;;;;;;;;;;19.80;22.66;102003.50;143733;983;47002;-76
2022/04/12 10:05:32;;;;;;;;;;;;;;;19.79;21.81;102003.72;143735;983;46012;-75
2022/04/12 10:08:00;;;;;;;;;;;;;;;19.75;23.23;102006.09;143732;980;47004;-77
2022/04/12 10:10:27;;;;;;;;;;;;;;;19.66;22.37;101994.66;143737;985;46010;-77
2022/04/12 10:12:54;;;;;;;;;;;;;;;19.65;22.86;101995.72;143737;984;47002;-76
2022/04/12 10:15:20;;;;;;;;;;;;;;;19.61;23.22;101986.34;143728;984;48004;-75
2022/04/12 10:17:47;;;;;;;;;;;;;;;19.69;23.07;101987.91;143733;979;47004;-77
2022/04/12 10:20:14;;;;;;;;;;;;;;;19.72;22.28;101986.63;143736;973;46027;-75
2022/04/12 10:22:41;;;;;;;;;;;;;;;19.72;22.75;101983.88;143735;984;47004;-74
2022/04/12 10:25:08;;;;;;;;;;;;;;;19.69;22.73;101980.56;143733;983;47013;-74
2022/04/12 10:27:34;;;;;;;;;;;;;;;19.61;23.46;101980.03;143731;980;47004;-75
2022/04/12 10:30:35;;;;;;;;;;;;;;;19.63;22.92;101973.31;143736;986;46010;-78
2022/04/12 10:33:05;;;;;;;;;;;;;;;19.77;22.49;101967.69;143738;964;46012;-76
2022/04/12 10:36:03;;;;;;;;;;;;;;;19.81;22.71;101972.44;143733;984;47012;-77
2022/04/12 10:38:41;;;;;;;;;;;;;;;19.87;22.71;101968.00;143731;980;47005;-76
2022/04/12 10:41:33;;;;;;;;;;;;;;;19.89;22.20;101962.31;143733;985;47002;-75
2022/04/12 10:43:59;;;;;;;;;;;;;;;19.92;22.00;101961.87;143733;984;47002;-74
2022/04/12 10:46:27;;;;;;;;;;;;;;;19.93;22.08;101947.19;143733;984;47013;-76
2022/04/12 10:48:54;;;;;;;;;;;;;;;20.02;22.04;101950.41;143731;979;47004;-75
2022/04/12 10:51:35;;;;;;;;;;;;;;;20.10;21.60;101941.87;143734;972;47010;-76
2022/04/12 10:54:01;;;;;;;;;;;;;;;20.33;22.25;101935.63;143734;984;47002;-77
2022/04/12 10:56:27;;;;;;;;;;;;;;;20.40;21.56;101930.91;143733;984;47012;-74
2022/04/12 10:58:53;;;;;;;;;;;;;;;20.38;21.20;101933.06;143733;980;47004;-75
2022/04/12 11:01:32;;;;;;;;;;;;;;;20.38;21.45;101922.13;143735;986;46010;-75
2022/04/12 11:04:00;;;;;;;;;;;;;;;20.36;20.79;101921.53;143732;984;47002;-75
2022/04/12 11:06:27;;;;;;;;;;;;;;;20.43;21.80;101913.22;143732;984;47012;-78
2022/04/12 11:08:54;;;;;;;;;;;;;;;20.36;20.86;101920.72;143731;980;47004;-76
2022/04/12 11:11:26;;;;;;;;;;;;;;;20.52;21.32;101913.72;143735;986;46010;-74
2022/04/12 11:13:53;;;;;;;;;;;;;;;20.71;22.04;101903.53;143735;984;47002;-75
2022/04/12 11:16:20;;;;;;;;;;;;;;;20.80;20.95;101893.94;143735;984;46013;-76
2022/04/12 11:18:52;;;;;;;;;;;;;;;20.80;20.60;101887.66;143731;979;47004;-75
2022/04/12 11:21:19;;;;;;;;;;;;;;;20.83;20.84;101892.59;143731;985;47002;-75
2022/04/12 11:23:56;;;;;;;;;;;;;;;20.73;21.04;101896.75;143733;984;47002;-74
2022/04/12 11:26:40;;;;;;;;;;;;;;;20.66;20.74;101882.38;143733;984;47012;-74
2022/04/12 11:29:13;;;;;;;;;;;;;;;20.78;20.65;101882.41;143733;978;47004;-74
2022/04/12 11:31:43;;;;;;;;;;;;;;;20.86;20.85;101882.06;143732;980;47011;-74
2022/04/12 11:34:09;;;;;;;;;;;;;;;20.77;20.43;101872.56;143734;984;47002;-74
2022/04/12 11:36:36;;;;;;;;;;;;;;;20.75;20.37;101874.66;143732;983;47933;-73
2022/04/12 11:39:02;;;;;;;;;;;;;;;20.88;20.62;101876.34;143731;980;47004;-76
2022/04/12 11:41:32;;;;;;;;;;;;;;;20.92;20.10;101868.50;143734;985;47010;-74
2022/04/12 11:44:01;;;;;;;;;;;;;;;21.00;20.67;101858.03;143732;984;47002;-75
2022/04/12 11:46:29;;;;;;;;;;;;;;;21.00;20.33;101860.75;143732;984;47013;-73
2022/04/12 11:49:02;;;;;;;;;;;;;;;20.79;20.27;101851.31;143732;979;47004;-75
2022/04/12 11:51:28;;;;;;;;;;;;;;;20.71;20.47;101855.22;143733;986;46010;-74
2022/04/12 11:53:54;;;;;;;;;;;;;;;20.70;20.89;101847.28;143734;984;47003;-73
2022/04/12 11:56:20;;;;;;;;;;;;;;;20.71;20.35;101851.66;143734;984;47012;-73
2022/04/12 11:58:46;;;;;;;;;;;;;;;20.80;20.26;101852.16;143730;980;47004;-76
2022/04/12 12:01:13;;;;;;;;;;;;;;;20.83;20.67;101846.19;143735;986;46011;-75
2022/04/12 12:03:42;;;;;;;;;;;;;;;20.86;20.52;101840.25;143735;984;47002;-74
2022/04/12 12:06:11;;;;;;;;;;;;;;;20.94;20.95;101839.03;143736;982;46012;-75
2022/04/12 12:08:37;;;;;;;;;;;;;;;20.96;20.13;101834.19;143731;980;47937;-76
2022/04/12 12:11:10;;;;;;;;;;;;;;;20.97;20.73;101824.91;143734;983;47010;-74
2022/04/12 12:13:36;;;;;;;;;;;;;;;20.81;20.94;101826.50;143734;984;47002;-75
2022/04/12 12:16:02;;;;;;;;;;;;;;;20.89;20.93;101815.19;143734;984;47013;-74
2022/04/12 12:18:28;;;;;;;;;;;;;;;20.93;20.81;101818.28;143732;979;47004;-75
2022/04/12 12:20:55;;;;;;;;;;;;;;;20.88;19.70;101817.13;143732;985;47010;-75
2022/04/12 12:23:20;;;;;;;;;;;;;;;20.79;20.07;101807.63;143734;984;47002;-75
2022/04/12 12:25:56;;;;;;;;;;;;;;;20.83;20.05;101797.03;143735;969;46031;-76
2022/04/12 12:28:23;;;;;;;;;;;;;;;20.83;19.77;101799.78;143731;980;47004;-76
2022/04/12 12:30:55;;;;;;;;;;;;;;;20.86;19.61;101797.41;143735;986;46011;-76
2022/04/12 12:33:25;;;;;;;;;;;;;;;20.78;19.54;101796.97;143737;981;46006;-76
2022/04/12 12:35:51;;;;;;;;;;;;;;;20.64;19.93;101789.00;143733;984;47010;-76
2022/04/12 12:38:18;;;;;;;;;;;;;;;20.54;20.28;101775.97;143732;980;47002;-74
2022/04/12 12:40:44;;;;;;;;;;;;;;;20.46;20.10;101779.06;143733;980;47000;-75